Terminal Aerodrome Forecast
Issued by NWS Lake Charles, LA

Home | Current Version | Previous Version | Text Only | Print | Product List | Glossary On
Versions: 1 2 3 4 5 6 7 8 9 10 11 12 13 14 15 16 17 18 19 20 21 22 23 24
000
FTUS44 KLCH 011500 AAA
TAFLCH
TAF AMD
KLCH 011518Z 0115/0212 13011G20KT P6SM VCTS BKN006CB OVC014
      TEMPO 0115/0117 4SM -SHRA BR OVC004
     FM011700 13010KT P6SM VCTS OVC007CB
      TEMPO 0117/0120 4SM -SHRA BR OVC004
     FM012000 11010KT P6SM VCSH OVC007
     FM020000 10006KT 4SM BR VCSH OVC004
     FM020600 11004KT 1SM BR VCSH OVC002=

USA.gov is the U.S. government's official web portal to all federal, state and local government web resources and services.